默认 日期 大小 文件数 浏览量 最新下载 xml
ld/-磁力链接相关资源由用户搜索指令自动获取,结果来源于网络,本站不存储任何资料,亦不承担任何责任,请于24小时内删除,搜索到7172个磁力,显示前4000条数据,用时8ms。
    {"Artwork": {"back.jpg": 208747, "back2.jpg": 201706, "front.jpg": 128124, "front2.jpg": 376754, "inside.jpg": 126706}, "folder.jpg": 42405, "Standards Gift.cue": 1320, "07 - Break Out.flac": 34082639, "06 - Tea for Two.flac": 22157415, "Standards Gift. ...
创建时间: 2023-10-03 18:45:33 大小:174.15 MB 文件数量:17 热度:12 最近下载:2025-08-08 22:42:01
    {"Wichtig!!": {"Notes!.txt": 815, "Relink.us - Share links for CASH!!!.url": 250, "Asmodis-Cineast.das etwas andere Board.url": 148, "GRATISDownload JETZT 3 GigabyteMusik.Video.Games.url": 211, "!!!MIT TOPSPEED DOWNLOADEN UND JETZT SOFORT KOSTENLOS TESTEN. ...
创建时间: 2023-10-01 23:00:25 大小:700.45 MB 文件数量:63 热度:4 最近下载:2025-02-20 21:12:02
    {"[Audio]": {"[Orphan] Gude Crest (LD) [47265359].Azazel & Esther.mka": 64493894}, "[Subtitles]": {"[Orphan] Gude Crest (LD) [47265359].broker.srt": 47102}, "[Orphan] Gude Crest (LD) [47265359].mkv": 761586261}
创建时间: 2023-09-29 19:17:45 大小:787.86 MB 文件数量:3 热度:3 最近下载:2025-01-21 15:58:02
    {"Artwork": {"back.jpg": 214757, "front.jpg": 177731, "inside.jpg": 128738}, "folder.jpg": 50402, "Standards.cue": 976, "Standards.accurip": 2431, "02 - September.flac": 29030743, "05 - Feelin' Good.flac": 27684949, "03 - The Good Life.flac": 27641113, " ...
创建时间: 2023-09-29 09:16:25 大小:153.02 MB 文件数量:14 热度:8 最近下载:2025-08-05 07:49:05
    {"[Subtitles]": {"[WOWmd] The Ten Little Gall Force (LD) [72C5182F][email protected]": 19453}, "[WOWmd] The Ten Little Gall Force (LD) [72C5182F].mkv": 1732261859}
创建时间: 2023-09-28 21:52:18 大小:1.61 GB 文件数量:2 热度:2 最近下载:2025-01-21 01:35:07
    ... Audio]": {"[Orphan] Megami Paradise - 01 (LD) [DA1A14E5].Jade.mka": 44170684, "[Orphan ... ] Megami Paradise - 02 (LD) [3A6A2692].Jade.mka": 43698458}, "[Subtitles ... }, "[Orphan] Megami Paradise - 01 (LD) [DA1A14E5].mkv": 636853953, "[Orphan] Megami ...
创建时间: 2023-09-28 06:59:51 大小:1.23 GB 文件数量:7 热度:3 最近下载:2025-02-22 08:47:07
    ... .to.Jerry.Cotton.2010.TS.LD.German.XviD.rar": 733386597}
创建时间: 2023-09-26 19:12:24 大小:699.43 MB 文件数量:6 热度:6 最近下载:2025-01-12 11:41:07
    {"VIDEO_TS": {"VIDEO_TS.BUP": 12288, "VIDEO_TS.IFO": 12288, "VIDEO_TS.VOB": 10240, "VTS_01_0.BUP": 75776, "VTS_01_0.IFO": 75776, "VTS_01_0.VOB": 1497088, "VTS_01_1.VOB": 1073739776, "VTS_01_2.VOB": 1073739776, "VTS_01_3.VOB": 1073739776, "VTS_01_4.VOB": ...
创建时间: 2023-09-26 16:50:23 大小:4 GB 文件数量:11 热度:3 最近下载:2025-01-28 09:25:02
    {"aoe-rubinrot.avi": 1494368256, "aoe-rubinrot.nfo": 8906, "www.torrent.to - Die besten und schnellsten Bit Torrent Downloads im Netz.url": 77}
创建时间: 2023-09-24 22:08:55 大小:1.39 GB 文件数量:3 热度:7 最近下载:2025-03-26 05:02:34
    {"aoe-rubinrot.avi": 1494368256, "aoe-rubinrot.nfo": 8906}
创建时间: 2023-09-23 22:40:40 大小:1.39 GB 文件数量:2 热度:7 最近下载:2025-03-18 16:22:03
    {"aoe-mitty_webrip.mkv": 861007979, "aoe-mitty_webrip.nfo": 8899}
创建时间: 2023-09-23 21:46:38 大小:821.13 MB 文件数量:2 热度:4 最近下载:2025-02-24 15:25:02
    {"01. Oui Non.flac": 50178016, "05. Air Tight.flac": 57209501, "09. W!LDBEATS.flac": 42093320, "08. Sur Ma Peau.flac": 39252034, "06. Vinyl Killer.flac": 38877446, "02. Suite de Coeur.flac": 40195140, "03. Back To Africa.flac": 41256278, "04. Disco And ...
创建时间: 2023-09-22 18:13:23 大小:448.54 MB 文件数量:10 热度:1 最近下载:2025-01-13 00:43:03
    {"MOVIE.nfo": 4858, "Subs[ENG].srt": 136693, "real-steel-poster.jpg": 120456, "www.TorrentDay.com.txt": 200, "Real Steel Trailer HD.mp4": 39816398, "Real Steel 2011 iTALiAN LD SCREENER XviD 710 IDN CREW.avi": 861778817}
创建时间: 2023-09-20 16:29:47 大小:860.08 MB 文件数量:6 热度:1 最近下载:2025-01-12 18:16:01
    ... Let's Nupu Nupu - OP (LD).mkv": 40566939, "[BBF] Let's ... nupu nupu - 01 [LD 480p SUB ITA][15448520].mkv ... Let's nupu nupu - 02 [LD 480p SUB ITA][7F7F7306].mkv ... 's nupu nupu - 03 [LD 480p SUB ITA][AD43FF4D].mkv ... 's nupu nupu - 04 [LD 480p SUB ITA][B29D362B].mkv ...
创建时间: 2023-09-19 21:12:00 大小:3.74 GB 文件数量:18 热度:4 最近下载:2025-08-03 17:30:05
    {"fd-wunderkinder.avi": 719085109, "fd-wunderkinder.nfo": 11861}
创建时间: 2023-09-19 07:16:28 大小:685.78 MB 文件数量:2 热度:2 最近下载:2025-01-25 08:38:01
    ... 577742848, "True.Detective.S02E02.FRENCH.LD.WEB-DL.XviD-ARK01.avi ... 577531904, "True.Detective.S02E03.FRENCH.LD.WEB-DL.XviD-ARK01.avi ... 577638400, "True.Detective.S02E04.FRENCH.LD.WEB-DL.XviD-ARK01.avi ... , "True.Detective.S02E05.FRENCH.LD.WEB-DL.XviD-ARK01.avi ...
创建时间: 2023-09-17 17:59:15 大小:4.45 GB 文件数量:9 热度:2 最近下载:2025-03-23 05:03:03
    {"Immortals.2011.iTALiAN.REPACK.LD.DvDSCR.XviD-CriMiNaL[MT].CD1.avi": 700565504, "Immortals.2011.iTALiAN.REPACK.LD.DvDSCR.XviD-CriMiNaL[MT].CD2.avi": 680306688}
创建时间: 2023-09-09 17:45:07 大小:1.29 GB 文件数量:2 热度:2 最近下载:2025-01-27 23:49:01
    ... 290966385, "[Ukyuu] Maze - 13 (LD 640x480 x264 Hi10p AAC).mkv ... 312365417, "[Ukyuu] Maze - 14 (LD 640x480 x264 Hi10p AAC).mkv ... ": 291407918, "[Ukyuu] Maze - CM5 (LD 640x480 x264 Hi10p AAC).mkv ... ": 29309903, "[Ukyuu] Maze - NCED1 (LD 640x480 x264 Hi10p AAC).mkv ...
创建时间: 2023-09-09 06:27:05 大小:1.06 GB 文件数量:6 热度:2 最近下载:2025-01-13 03:36:02
    {"Torrent Download From SilverTorrent.org.txt": 91, "The Wizard of Oz (1939) LD BDRip XviD-MiND.avi": 663932447}
创建时间: 2023-09-09 05:33:53 大小:633.18 MB 文件数量:2 热度:1 最近下载:2025-01-18 11:03:05
    {"Importante Leeme!.vbs": 206, "The.Lost.Flowers.Of.Alice.Hart.S01E05.2023.WEB-LD.1080p-Dual-Lat.mkv": 1870441021, "Hackstore.Ac - Peliculas, Series y animes Gratis en Los Mejores servidores.url": 47}
创建时间: 2023-09-07 22:46:18 大小:1.74 GB 文件数量:3 热度:1 最近下载:2025-01-25 08:40:03